createdAt,value
2017-11-12T00:00:51.278Z,0.00
2017-11-12T00:01:51.257Z,0.00
2017-11-12T00:02:51.252Z,0.00
2017-11-12T00:03:51.255Z,0.00
2017-11-12T00:04:51.241Z,0.00
2017-11-12T00:05:51.231Z,0.00
2017-11-12T00:06:51.225Z,0.00
2017-11-12T00:07:51.224Z,0.00
2017-11-12T00:08:51.215Z,0.00
2017-11-12T00:09:51.210Z,0.00
2017-11-12T00:10:51.203Z,0.00
2017-11-12T00:11:51.197Z,0.00
2017-11-12T00:12:51.194Z,0.00
2017-11-12T00:13:51.186Z,0.00
2017-11-12T00:14:51.182Z,0.00
2017-11-12T00:15:51.176Z,0.00
2017-11-12T00:16:51.168Z,0.00
2017-11-12T00:17:51.164Z,0.00
2017-11-12T00:18:51.158Z,0.00
2017-11-12T00:19:51.154Z,0.00
2017-11-12T00:20:51.145Z,0.00
2017-11-12T00:21:51.142Z,0.00
2017-11-12T00:22:51.139Z,0.00
2017-11-12T00:23:51.129Z,0.00
2017-11-12T00:24:51.126Z,0.00
2017-11-12T00:25:51.116Z,0.00
2017-11-12T00:26:51.109Z,0.00
2017-11-12T00:27:51.107Z,0.00
2017-11-12T00:28:51.102Z,0.00
2017-11-12T00:29:51.095Z,0.00
2017-11-12T00:30:51.089Z,0.00
2017-11-12T00:31:51.080Z,0.00
2017-11-12T00:32:51.078Z,0.00
2017-11-12T00:33:51.070Z,0.00
2017-11-12T00:34:51.067Z,0.00
2017-11-12T00:35:51.057Z,0.00
2017-11-12T00:36:51.052Z,0.00
2017-11-12T00:37:51.050Z,0.00
2017-11-12T00:38:51.050Z,0.00
2017-11-12T00:39:51.042Z,0.00
2017-11-12T00:40:51.033Z,0.00
2017-11-12T00:41:51.021Z,0.00
2017-11-12T00:42:51.019Z,0.00
2017-11-12T00:43:51.027Z,0.00
2017-11-12T00:44:51.008Z,0.00
2017-11-12T00:45:50.997Z,0.00
2017-11-12T00:46:50.995Z,0.00
2017-11-12T00:47:50.990Z,0.00
2017-11-12T00:48:50.983Z,0.00
2017-11-12T00:49:50.977Z,0.00
2017-11-12T00:50:50.975Z,0.00
2017-11-12T00:51:50.966Z,0.00
2017-11-12T00:52:50.960Z,0.00
2017-11-12T00:53:50.952Z,0.00
2017-11-12T00:54:50.948Z,0.00
2017-11-12T00:55:50.942Z,0.00
2017-11-12T00:56:50.936Z,0.00
2017-11-12T00:57:50.933Z,0.00
2017-11-12T00:58:50.926Z,0.00
2017-11-12T00:59:50.919Z,0.00
2017-11-12T01:00:50.912Z,0.00
2017-11-12T01:01:50.905Z,0.00
2017-11-12T01:02:50.904Z,0.00
2017-11-12T01:03:50.891Z,0.00
2017-11-12T01:04:50.888Z,0.00
2017-11-12T01:05:50.881Z,0.00
2017-11-12T01:06:50.877Z,0.00
2017-11-12T01:07:50.870Z,0.00
2017-11-12T01:08:50.864Z,0.00
2017-11-12T01:09:50.853Z,0.00
2017-11-12T01:10:50.852Z,0.00
2017-11-12T01:11:50.845Z,0.00
2017-11-12T01:12:50.839Z,0.00
2017-11-12T01:13:50.835Z,0.00
2017-11-12T01:14:50.833Z,0.00
2017-11-12T01:15:50.817Z,0.00
2017-11-12T01:16:50.820Z,0.00
2017-11-12T01:17:50.809Z,0.00
2017-11-12T01:18:50.804Z,0.00
2017-11-12T01:19:50.797Z,0.00
2017-11-12T01:20:50.791Z,0.00
2017-11-12T01:21:50.786Z,0.00
2017-11-12T01:22:50.781Z,0.00
2017-11-12T01:23:50.772Z,0.00
2017-11-12T01:24:50.767Z,0.00
2017-11-12T01:25:50.757Z,0.00
2017-11-12T01:26:50.760Z,0.00
2017-11-12T01:27:50.748Z,0.00
2017-11-12T01:28:50.740Z,0.00
2017-11-12T01:29:50.735Z,0.00
2017-11-12T01:30:50.732Z,0.00
2017-11-12T01:31:50.733Z,0.00
2017-11-12T01:32:50.717Z,0.00
2017-11-12T01:33:50.712Z,0.00
2017-11-12T01:34:50.710Z,0.00
2017-11-12T01:35:50.699Z,0.00
2017-11-12T01:36:50.697Z,0.00
2017-11-12T01:37:50.691Z,0.00
2017-11-12T01:38:50.681Z,0.00
2017-11-12T01:39:50.679Z,0.00
2017-11-12T01:40:50.670Z,0.00
2017-11-12T01:41:50.665Z,0.00
2017-11-12T01:42:50.658Z,0.00
2017-11-12T01:43:50.654Z,0.00
2017-11-12T01:44:50.645Z,0.00
2017-11-12T01:45:50.645Z,0.00
2017-11-12T01:46:50.636Z,0.00
2017-11-12T01:47:50.630Z,0.00
2017-11-12T01:48:50.621Z,0.00
2017-11-12T01:49:50.618Z,0.00
2017-11-12T01:50:50.609Z,0.00
2017-11-12T01:51:50.605Z,0.00
2017-11-12T01:52:50.600Z,0.00
2017-11-12T01:53:50.592Z,0.00
2017-11-12T01:54:50.585Z,0.00
2017-11-12T01:55:50.583Z,0.00
2017-11-12T01:56:50.575Z,0.00
2017-11-12T01:57:50.571Z,0.00
2017-11-12T01:58:50.564Z,0.00
2017-11-12T01:59:50.562Z,0.00
2017-11-12T02:00:50.550Z,0.00
2017-11-12T02:01:50.545Z,0.00
2017-11-12T02:02:50.538Z,0.00
2017-11-12T02:03:50.535Z,0.00
2017-11-12T02:04:50.530Z,0.00
2017-11-12T02:05:50.521Z,0.00
2017-11-12T02:06:50.516Z,0.00
2017-11-12T02:07:50.508Z,0.00
2017-11-12T02:08:50.506Z,0.00
2017-11-12T02:09:50.498Z,0.00
2017-11-12T02:10:50.490Z,0.00
2017-11-12T02:11:50.488Z,0.00
2017-11-12T02:12:50.485Z,0.00
2017-11-12T02:13:50.480Z,0.00
2017-11-12T02:14:50.470Z,0.00
2017-11-12T02:15:50.460Z,0.00
2017-11-12T02:16:50.462Z,0.00
2017-11-12T02:17:50.457Z,0.00
2017-11-12T02:18:50.443Z,0.00
2017-11-12T02:19:50.441Z,0.00
2017-11-12T02:20:50.435Z,0.00
2017-11-12T02:21:50.429Z,0.00
2017-11-12T02:22:50.423Z,0.00
2017-11-12T02:23:50.414Z,0.00
2017-11-12T02:24:50.411Z,0.00
2017-11-12T02:25:57.931Z,0.00
2017-11-12T02:26:50.400Z,0.00
2017-11-12T02:27:50.391Z,0.00
2017-11-12T02:28:50.383Z,0.00
2017-11-12T02:29:50.382Z,0.00
2017-11-12T02:30:50.373Z,0.00
2017-11-12T02:31:50.370Z,0.00
2017-11-12T02:32:50.365Z,0.00
2017-11-12T02:33:50.353Z,0.00
2017-11-12T02:34:50.356Z,0.00
2017-11-12T02:35:50.345Z,0.00
2017-11-12T02:36:50.338Z,0.00
2017-11-12T02:37:50.336Z,0.00
2017-11-12T02:38:50.323Z,0.00
2017-11-12T02:39:50.321Z,0.00
2017-11-12T02:40:50.316Z,0.00
2017-11-12T02:41:50.309Z,0.00
2017-11-12T02:42:50.302Z,0.00
2017-11-12T02:43:50.293Z,0.00
2017-11-12T02:44:50.292Z,0.00
2017-11-12T02:45:50.289Z,0.00
2017-11-12T02:46:50.283Z,0.00
2017-11-12T02:47:50.276Z,0.00
2017-11-12T02:48:50.264Z,0.00
2017-11-12T02:49:50.261Z,0.00
2017-11-12T02:50:50.255Z,0.00
2017-11-12T02:51:50.247Z,0.00
2017-11-12T02:52:50.244Z,0.00
2017-11-12T02:53:50.235Z,0.00
2017-11-12T02:54:50.231Z,0.00
2017-11-12T02:55:50.225Z,0.00
2017-11-12T02:56:50.219Z,0.00
2017-11-12T02:57:50.214Z,0.00
2017-11-12T02:58:50.207Z,0.00
2017-11-12T02:59:50.200Z,0.00
2017-11-12T03:00:50.195Z,0.00
2017-11-12T03:01:50.188Z,0.00
2017-11-12T03:02:50.182Z,0.00
2017-11-12T03:03:50.176Z,0.00
2017-11-12T03:04:50.170Z,0.00
2017-11-12T03:05:50.166Z,0.00
2017-11-12T03:06:50.158Z,0.00
2017-11-12T03:07:50.151Z,0.00
2017-11-12T03:08:50.145Z,0.00
2017-11-12T03:09:50.140Z,0.00
2017-11-12T03:10:50.132Z,0.00
2017-11-12T03:11:50.125Z,0.00
2017-11-12T03:12:50.118Z,0.00
2017-11-12T03:13:50.115Z,0.00
2017-11-12T03:14:50.113Z,0.00
2017-11-12T03:15:50.102Z,0.00
2017-11-12T03:16:50.097Z,0.00
2017-11-12T03:17:50.089Z,0.00
2017-11-12T03:18:50.080Z,0.00
2017-11-12T03:19:50.080Z,0.00
2017-11-12T03:20:50.072Z,0.00
2017-11-12T03:21:50.065Z,0.00
2017-11-12T03:22:50.066Z,0.00
2017-11-12T03:23:50.050Z,0.00
2017-11-12T03:24:50.048Z,0.00
2017-11-12T03:25:50.042Z,0.00
2017-11-12T03:26:50.036Z,0.00
2017-11-12T03:27:50.030Z,0.00
2017-11-12T03:28:50.019Z,0.00
2017-11-12T03:29:50.015Z,0.00
2017-11-12T03:30:50.010Z,0.00
2017-11-12T03:31:50.008Z,0.00
2017-11-12T03:32:49.999Z,0.00
2017-11-12T03:33:49.991Z,0.00
2017-11-12T03:34:49.986Z,0.00
2017-11-12T03:35:49.985Z,0.00
2017-11-12T03:36:49.974Z,0.00
2017-11-12T03:37:49.967Z,0.00
2017-11-12T03:38:49.957Z,0.00
2017-11-12T03:39:49.956Z,0.00
2017-11-12T03:40:49.948Z,0.00
2017-11-12T03:41:49.950Z,0.00
2017-11-12T03:42:49.934Z,0.00
2017-11-12T03:43:49.941Z,0.00
2017-11-12T03:44:49.924Z,0.00
2017-11-12T03:45:49.917Z,0.00
2017-11-12T03:46:49.909Z,0.00
2017-11-12T03:47:49.908Z,0.00
2017-11-12T03:48:49.895Z,0.00
2017-11-12T03:49:49.891Z,0.00
2017-11-12T03:50:49.887Z,0.00
2017-11-12T03:51:49.878Z,0.00
2017-11-12T03:52:49.869Z,0.00
2017-11-12T03:53:49.866Z,0.00
2017-11-12T03:54:49.860Z,0.00
2017-11-12T03:55:49.860Z,0.00
2017-11-12T03:56:49.846Z,0.00
2017-11-12T03:57:49.839Z,0.00
2017-11-12T03:58:49.839Z,0.00
2017-11-12T03:59:49.827Z,0.00
2017-11-12T04:00:49.821Z,0.00
2017-11-12T04:01:49.828Z,0.00
2017-11-12T04:02:49.810Z,0.00
2017-11-12T04:03:49.817Z,0.00
2017-11-12T04:04:49.802Z,0.00
2017-11-12T04:05:49.792Z,0.00
2017-11-12T04:06:49.785Z,0.00
2017-11-12T04:07:49.776Z,0.00
2017-11-12T04:08:49.770Z,0.00
2017-11-12T04:09:49.760Z,0.00
2017-11-12T04:10:49.757Z,0.00
2017-11-12T04:11:49.755Z,0.00
2017-11-12T04:12:49.741Z,0.00
2017-11-12T04:13:49.735Z,0.00
2017-11-12T04:14:49.734Z,0.00
2017-11-12T04:15:49.727Z,0.00
2017-11-12T04:16:49.720Z,0.00
2017-11-12T04:17:49.714Z,0.00
2017-11-12T04:18:49.708Z,0.00
2017-11-12T04:19:49.701Z,0.00
2017-11-12T04:20:49.697Z,0.00
2017-11-12T04:21:49.687Z,0.00
2017-11-12T04:22:49.680Z,0.00
2017-11-12T04:23:49.672Z,0.00
2017-11-12T04:24:49.668Z,0.00
2017-11-12T04:25:49.662Z,0.00
2017-11-12T04:26:49.657Z,0.00
2017-11-12T04:27:49.648Z,0.00
2017-11-12T04:28:49.644Z,0.00
2017-11-12T04:29:49.642Z,0.00
2017-11-12T04:30:49.631Z,0.00
2017-11-12T04:31:49.630Z,0.00
2017-11-12T04:32:49.617Z,0.00
2017-11-12T04:33:49.608Z,0.00
2017-11-12T04:34:49.604Z,0.00
2017-11-12T04:35:49.599Z,0.00
2017-11-12T04:36:49.590Z,0.00
2017-11-12T04:37:49.592Z,0.00
2017-11-12T04:38:49.582Z,0.00
2017-11-12T04:39:49.572Z,0.00
2017-11-12T04:40:49.565Z,0.00
2017-11-12T04:41:49.557Z,0.00
2017-11-12T04:42:49.554Z,0.00
2017-11-12T04:43:49.548Z,0.00
2017-11-12T04:44:49.541Z,0.00
2017-11-12T04:45:49.534Z,0.00
2017-11-12T04:46:49.526Z,0.00
2017-11-12T04:47:49.522Z,0.00
2017-11-12T04:48:49.515Z,0.00
2017-11-12T04:49:49.508Z,0.00
2017-11-12T04:50:49.502Z,0.00
2017-11-12T04:51:49.494Z,0.00
2017-11-12T04:52:49.490Z,0.00
2017-11-12T04:53:49.479Z,0.00
2017-11-12T04:54:49.472Z,0.00
2017-11-12T04:55:49.470Z,0.00
2017-11-12T04:56:49.462Z,0.00
2017-11-12T04:57:49.469Z,0.00
2017-11-12T04:58:49.465Z,0.00
2017-11-12T04:59:49.468Z,0.00
2017-11-12T05:00:49.449Z,0.00
2017-11-12T05:01:49.437Z,0.00
2017-11-12T05:02:49.444Z,0.00
2017-11-12T05:03:49.426Z,0.00
2017-11-12T05:04:49.410Z,0.00
2017-11-12T05:05:49.409Z,0.00
2017-11-12T05:06:49.397Z,0.00
2017-11-12T05:07:49.394Z,0.00
2017-11-12T05:08:49.388Z,0.00
2017-11-12T05:09:49.379Z,0.00
2017-11-12T05:10:49.373Z,0.00
2017-11-12T05:11:49.364Z,0.00
2017-11-12T05:12:49.361Z,0.00
2017-11-12T05:13:49.357Z,0.00
2017-11-12T05:14:49.348Z,0.00
2017-11-12T05:15:49.342Z,0.00
2017-11-12T05:16:49.332Z,0.00
2017-11-12T05:17:49.339Z,0.00
2017-11-12T05:18:49.342Z,0.00
2017-11-12T05:19:49.330Z,0.00
2017-11-12T05:20:49.313Z,0.00
2017-11-12T05:21:49.320Z,0.00
2017-11-12T05:22:49.297Z,0.00
2017-11-12T05:23:49.290Z,0.00
2017-11-12T05:24:49.284Z,0.00
2017-11-12T05:25:49.277Z,0.00
2017-11-12T05:26:49.262Z,0.00
2017-11-12T05:27:49.259Z,0.00
2017-11-12T05:28:49.251Z,0.00
2017-11-12T05:29:49.248Z,0.00
2017-11-12T05:30:49.244Z,0.00
2017-11-12T05:31:49.235Z,0.00
2017-11-12T05:32:49.234Z,0.00
2017-11-12T05:33:49.239Z,0.00
2017-11-12T05:34:49.218Z,0.00
2017-11-12T05:35:49.214Z,0.00
2017-11-12T05:36:49.207Z,0.00
2017-11-12T05:37:49.202Z,0.00
2017-11-12T05:38:49.204Z,0.00
2017-11-12T05:39:49.198Z,0.00
2017-11-12T05:40:49.183Z,0.00
2017-11-12T05:41:49.170Z,0.00
2017-11-12T05:42:49.184Z,0.00
2017-11-12T05:43:49.152Z,0.00
2017-11-12T05:44:49.159Z,0.00
2017-11-12T05:45:49.146Z,0.00
2017-11-12T05:46:49.141Z,0.00
2017-11-12T05:47:49.138Z,0.00
2017-11-12T05:48:49.127Z,0.00
2017-11-12T05:49:49.124Z,0.00
2017-11-12T05:50:49.116Z,0.00
2017-11-12T05:51:49.107Z,0.00
2017-11-12T05:52:49.099Z,0.00
2017-11-12T05:53:49.093Z,0.00
2017-11-12T05:54:49.091Z,0.00
2017-11-12T05:55:49.089Z,0.00
2017-11-12T05:56:49.075Z,0.00
2017-11-12T05:57:49.068Z,0.00
2017-11-12T05:58:49.100Z,0.00
2017-11-12T05:59:49.058Z,0.00
2017-11-12T06:00:49.052Z,0.00
2017-11-12T06:01:49.042Z,0.00
2017-11-12T06:02:49.040Z,0.00
2017-11-12T06:03:49.030Z,4.00
2017-11-12T06:04:49.893Z,4.00
2017-11-12T06:05:49.019Z,0.00
2017-11-12T06:06:49.009Z,0.00
2017-11-12T06:07:49.006Z,0.00
2017-11-12T06:08:49.003Z,0.00
2017-11-12T06:09:49.013Z,4.00
2017-11-12T06:10:48.988Z,4.00
2017-11-12T06:11:48.977Z,4.00
2017-11-12T06:12:48.971Z,4.00
2017-11-12T06:13:48.966Z,4.00
2017-11-12T06:14:48.960Z,4.00
2017-11-12T06:15:48.956Z,8.00
2017-11-12T06:16:48.944Z,8.00
2017-11-12T06:17:48.941Z,8.00
2017-11-12T06:18:48.940Z,8.00
2017-11-12T06:19:48.930Z,12.00
2017-11-12T06:20:48.922Z,16.00
2017-11-12T06:21:48.913Z,12.00
2017-11-12T06:22:48.910Z,16.00
2017-11-12T06:23:48.902Z,16.00
2017-11-12T06:24:48.896Z,16.00
2017-11-12T06:25:48.891Z,16.00
2017-11-12T06:26:48.881Z,20.00
2017-11-12T06:27:48.877Z,24.00
2017-11-12T06:28:48.872Z,24.00
2017-11-12T06:29:48.874Z,24.00
2017-11-12T06:30:48.859Z,28.00
2017-11-12T06:31:48.851Z,36.00
2017-11-12T06:32:48.844Z,36.00
2017-11-12T06:33:48.839Z,44.00
2017-11-12T06:34:48.831Z,48.00
2017-11-12T06:35:48.827Z,52.00
2017-11-12T06:36:48.817Z,60.00
2017-11-12T06:37:48.813Z,68.00
2017-11-12T06:38:48.807Z,80.00
2017-11-12T06:39:48.799Z,88.00
2017-11-12T06:40:48.794Z,100.00
2017-11-12T06:41:48.787Z,104.00
2017-11-12T06:42:48.781Z,104.00
2017-11-12T06:43:48.772Z,104.00
2017-11-12T06:44:48.769Z,100.00
2017-11-12T06:45:48.758Z,104.00
2017-11-12T06:46:48.758Z,108.00
2017-11-12T06:47:48.745Z,112.00
2017-11-12T06:48:48.743Z,120.00
2017-11-12T06:49:48.740Z,128.00
2017-11-12T06:50:48.727Z,132.00
2017-11-12T06:51:48.724Z,144.00
2017-11-12T06:52:48.719Z,152.00
2017-11-12T06:53:48.707Z,160.00
2017-11-12T06:54:48.701Z,160.00
2017-11-12T06:55:48.693Z,168.00
2017-11-12T06:56:48.692Z,172.00
2017-11-12T06:57:48.681Z,176.00
2017-11-12T06:58:48.679Z,184.00
2017-11-12T06:59:48.672Z,192.00
2017-11-12T07:00:48.670Z,208.00
2017-11-12T07:01:48.659Z,220.00
2017-11-12T07:02:48.653Z,232.00
2017-11-12T07:03:48.646Z,248.00
2017-11-12T07:04:48.640Z,256.00
2017-11-12T07:05:48.630Z,268.00
2017-11-12T07:06:48.622Z,284.00
2017-11-12T07:07:48.617Z,300.00
2017-11-12T07:08:48.664Z,324.00
2017-11-12T07:09:48.608Z,344.00
2017-11-12T07:10:48.603Z,364.00
2017-11-12T07:11:48.605Z,384.00
2017-11-12T07:12:48.589Z,400.00
2017-11-12T07:13:48.581Z,412.00
2017-11-12T07:14:48.576Z,416.00
2017-11-12T07:15:48.570Z,420.00
2017-11-12T07:16:48.562Z,420.00
2017-11-12T07:17:48.556Z,424.00
2017-11-12T07:18:48.554Z,424.00
2017-11-12T07:19:48.545Z,436.00
2017-11-12T07:20:48.539Z,448.00
2017-11-12T07:21:48.527Z,464.00
2017-11-12T07:22:48.526Z,480.00
2017-11-12T07:23:48.518Z,504.00
2017-11-12T07:24:48.514Z,536.00
2017-11-12T07:25:48.508Z,560.00
2017-11-12T07:26:48.498Z,588.00
2017-11-12T07:27:48.494Z,612.00
2017-11-12T07:28:48.493Z,628.00
2017-11-12T07:29:48.480Z,652.00
2017-11-12T07:30:48.472Z,672.00
2017-11-12T07:31:48.466Z,700.00
2017-11-12T07:32:48.461Z,736.00
2017-11-12T07:33:48.458Z,776.00
2017-11-12T07:34:48.449Z,808.00
2017-11-12T07:35:48.440Z,816.00
2017-11-12T07:36:48.437Z,804.00
2017-11-12T07:37:48.431Z,772.00
2017-11-12T07:38:48.423Z,736.00
2017-11-12T07:39:48.418Z,708.00
2017-11-12T07:40:48.408Z,688.00
2017-11-12T07:41:48.409Z,660.00
2017-11-12T07:42:48.399Z,624.00
2017-11-12T07:43:48.393Z,580.00
2017-11-12T07:44:48.386Z,540.00
2017-11-12T07:45:48.376Z,524.00
2017-11-12T07:46:48.370Z,528.00
2017-11-12T07:47:48.370Z,544.00
2017-11-12T07:48:48.358Z,580.00
2017-11-12T07:49:48.355Z,616.00
2017-11-12T07:50:48.346Z,636.00
2017-11-12T07:51:48.342Z,644.00
2017-11-12T07:52:48.337Z,640.00
2017-11-12T07:53:48.329Z,628.00
2017-11-12T07:54:48.327Z,628.00
2017-11-12T07:55:48.314Z,624.00
2017-11-12T07:56:48.313Z,624.00
2017-11-12T07:57:48.304Z,620.00
2017-11-12T07:58:48.299Z,604.00
2017-11-12T07:59:48.291Z,568.00
2017-11-12T08:00:48.280Z,524.00
2017-11-12T08:01:48.280Z,476.00
2017-11-12T08:02:48.271Z,452.00
2017-11-12T08:03:48.266Z,428.00
2017-11-12T08:04:48.260Z,424.00
2017-11-12T08:05:48.249Z,424.00
2017-11-12T08:06:48.245Z,428.00
2017-11-12T08:07:48.243Z,444.00
2017-11-12T08:08:48.232Z,452.00
2017-11-12T08:09:48.224Z,508.00
2017-11-12T08:10:48.223Z,564.00
2017-11-12T08:11:48.216Z,604.00
2017-11-12T08:12:48.212Z,628.00
2017-11-12T08:13:48.203Z,640.00
2017-11-12T08:14:48.198Z,616.00
2017-11-12T08:15:48.188Z,592.00
2017-11-12T08:16:48.192Z,596.00
2017-11-12T08:17:48.178Z,612.00
2017-11-12T08:18:48.172Z,612.00
2017-11-12T08:19:48.164Z,620.00
2017-11-12T08:20:48.166Z,612.00
2017-11-12T08:21:48.155Z,600.00
2017-11-12T08:22:48.148Z,568.00
2017-11-12T08:23:48.141Z,516.00
2017-11-12T08:24:48.135Z,516.00
2017-11-12T08:25:48.122Z,516.00
2017-11-12T08:26:48.122Z,540.00
2017-11-12T08:27:48.114Z,520.00
2017-11-12T08:28:48.113Z,552.00
2017-11-12T08:29:48.103Z,588.00
2017-11-12T08:30:48.096Z,604.00
2017-11-12T08:31:48.082Z,628.00
2017-11-12T08:32:48.082Z,644.00
2017-11-12T08:33:48.077Z,644.00
2017-11-12T08:34:48.076Z,668.00
2017-11-12T08:35:48.065Z,692.00
2017-11-12T08:36:48.058Z,704.00
2017-11-12T08:37:48.050Z,716.00
2017-11-12T08:38:48.045Z,736.00
2017-11-12T08:39:48.039Z,764.00
2017-11-12T08:40:48.033Z,808.00
2017-11-12T08:41:48.027Z,848.00
2017-11-12T08:42:48.019Z,868.00
2017-11-12T08:43:48.011Z,876.00
2017-11-12T08:44:48.007Z,892.00
2017-11-12T08:45:48.002Z,920.00
2017-11-12T08:46:47.994Z,944.00
2017-11-12T08:47:48.930Z,960.00
2017-11-12T08:48:47.980Z,976.00
2017-11-12T08:49:47.976Z,1004.00
2017-11-12T08:50:47.967Z,1036.00
2017-11-12T08:51:47.963Z,1068.00
2017-11-12T08:52:47.959Z,1096.00
2017-11-12T08:53:47.950Z,1116.00
2017-11-12T08:54:47.944Z,1132.00
2017-11-12T08:55:47.939Z,1144.00
2017-11-12T08:56:47.932Z,1156.00
2017-11-12T08:57:47.926Z,1164.00
2017-11-12T08:58:47.918Z,1176.00
2017-11-12T08:59:47.914Z,1196.00
2017-11-12T09:00:47.908Z,1208.00
2017-11-12T09:01:47.902Z,1204.00
2017-11-12T09:02:47.898Z,1184.00
2017-11-12T09:03:47.890Z,1168.00
2017-11-12T09:04:47.882Z,1164.00
2017-11-12T09:05:47.906Z,1172.00
2017-11-12T09:06:47.872Z,1188.00
2017-11-12T09:07:47.864Z,1216.00
2017-11-12T09:08:47.863Z,1268.00
2017-11-12T09:09:47.858Z,1332.00
2017-11-12T09:10:47.847Z,1396.00
2017-11-12T09:11:47.843Z,1444.00
2017-11-12T09:12:47.840Z,1424.00
2017-11-12T09:13:47.828Z,1352.00
2017-11-12T09:14:47.826Z,1260.00
2017-11-12T09:15:47.820Z,1192.00
2017-11-12T09:16:47.813Z,1148.00
2017-11-12T09:17:47.808Z,1116.00
2017-11-12T09:18:47.799Z,1060.00
2017-11-12T09:19:47.797Z,992.00
2017-11-12T09:20:47.790Z,948.00
2017-11-12T09:21:47.784Z,960.00
2017-11-12T09:22:47.777Z,960.00
2017-11-12T09:23:47.775Z,940.00
2017-11-12T09:24:47.766Z,924.00
2017-11-12T09:25:47.764Z,908.00
2017-11-12T09:26:47.754Z,900.00
2017-11-12T09:27:47.744Z,928.00
2017-11-12T09:28:47.740Z,948.00
2017-11-12T09:29:47.736Z,944.00
2017-11-12T09:30:47.730Z,936.00
2017-11-12T09:31:47.725Z,944.00
2017-11-12T09:32:47.717Z,964.00
2017-11-12T09:33:47.709Z,972.00
2017-11-12T09:34:47.704Z,964.00
2017-11-12T09:35:47.699Z,948.00
2017-11-12T09:36:47.693Z,940.00
2017-11-12T09:37:47.687Z,944.00
2017-11-12T09:38:47.680Z,976.00
2017-11-12T09:39:47.683Z,1040.00
2017-11-12T09:40:47.669Z,1092.00
2017-11-12T09:41:47.664Z,1136.00
2017-11-12T09:42:47.656Z,1168.00
2017-11-12T09:43:47.650Z,1184.00
2017-11-12T09:44:47.645Z,1160.00
2017-11-12T09:45:47.637Z,1128.00
2017-11-12T09:46:47.635Z,1120.00
2017-11-12T09:47:47.630Z,1132.00
2017-11-12T09:48:47.618Z,1128.00
2017-11-12T09:49:47.613Z,1080.00
2017-11-12T09:50:47.608Z,980.00
2017-11-12T09:51:47.600Z,836.00
2017-11-12T09:52:47.597Z,676.00
2017-11-12T09:53:47.590Z,568.00
2017-11-12T09:54:47.583Z,532.00
2017-11-12T09:55:47.606Z,544.00
2017-11-12T09:56:47.572Z,572.00
2017-11-12T09:57:47.563Z,588.00
2017-11-12T09:58:47.556Z,604.00
2017-11-12T09:59:47.553Z,640.00
2017-11-12T10:00:47.547Z,692.00
2017-11-12T10:01:47.542Z,740.00
2017-11-12T10:02:47.534Z,772.00
2017-11-12T10:03:47.530Z,804.00
2017-11-12T10:04:47.523Z,816.00
2017-11-12T10:05:47.516Z,816.00
2017-11-12T10:06:47.511Z,808.00
2017-11-12T10:07:47.512Z,792.00
2017-11-12T10:08:47.493Z,760.00
2017-11-12T10:09:47.491Z,724.00
2017-11-12T10:10:47.485Z,688.00
2017-11-12T10:11:47.483Z,676.00
2017-11-12T10:12:47.469Z,708.00
2017-11-12T10:13:47.467Z,788.00
2017-11-12T10:14:47.461Z,896.00
2017-11-12T10:15:47.454Z,984.00
2017-11-12T10:16:47.448Z,1044.00
2017-11-12T10:17:47.440Z,1060.00
2017-11-12T10:18:47.433Z,1092.00
2017-11-12T10:19:47.427Z,1152.00
2017-11-12T10:20:47.422Z,1176.00
2017-11-12T10:21:47.420Z,1144.00
2017-11-12T10:22:47.409Z,1076.00
2017-11-12T10:23:47.402Z,1012.00
2017-11-12T10:24:47.398Z,1020.00
2017-11-12T10:25:47.401Z,1120.00
2017-11-12T10:26:47.385Z,1260.00
2017-11-12T10:27:47.381Z,1392.00
2017-11-12T10:28:47.372Z,1476.00
2017-11-12T10:29:47.364Z,1536.00
2017-11-12T10:30:47.362Z,1592.00
2017-11-12T10:31:47.355Z,1624.00
2017-11-12T10:32:47.347Z,1556.00
2017-11-12T10:33:47.343Z,1388.00
2017-11-12T10:34:47.336Z,1248.00
2017-11-12T10:35:47.332Z,1168.00
2017-11-12T10:36:47.326Z,1144.00
2017-11-12T10:37:47.323Z,1184.00
2017-11-12T10:38:47.316Z,1200.00
2017-11-12T10:39:47.307Z,1204.00
2017-11-12T10:40:47.300Z,1260.00
2017-11-12T10:41:47.300Z,1396.00
2017-11-12T10:42:47.287Z,1516.00
2017-11-12T10:43:47.280Z,1616.00
2017-11-12T10:44:47.283Z,1636.00
2017-11-12T10:45:47.299Z,1468.00
2017-11-12T10:46:47.261Z,1272.00
2017-11-12T10:47:47.260Z,1096.00
2017-11-12T10:48:47.250Z,936.00
2017-11-12T10:49:47.245Z,820.00
2017-11-12T10:50:47.241Z,736.00
2017-11-12T10:51:47.236Z,676.00
2017-11-12T10:52:47.227Z,684.00
2017-11-12T10:53:47.220Z,768.00
2017-11-12T10:54:47.215Z,892.00
2017-11-12T10:55:47.210Z,1016.00
2017-11-12T10:56:47.206Z,1108.00
2017-11-12T10:57:47.196Z,1184.00
2017-11-12T10:58:47.193Z,1144.00
2017-11-12T10:59:47.188Z,1036.00
2017-11-12T11:00:47.181Z,932.00
2017-11-12T11:01:47.172Z,900.00
2017-11-12T11:02:47.164Z,948.00
2017-11-12T11:03:47.159Z,1024.00
2017-11-12T11:04:47.188Z,1108.00
2017-11-12T11:05:47.149Z,1164.00
2017-11-12T11:06:47.142Z,1156.00
2017-11-12T11:07:47.135Z,1096.00
2017-11-12T11:08:47.129Z,1016.00
2017-11-12T11:09:47.123Z,952.00
2017-11-12T11:10:47.115Z,916.00
2017-11-12T11:11:47.110Z,932.00
2017-11-12T11:12:47.122Z,976.00
2017-11-12T11:13:47.095Z,1000.00
2017-11-12T11:14:47.092Z,1004.00
2017-11-12T11:15:47.087Z,980.00
2017-11-12T11:16:47.079Z,964.00
2017-11-12T11:17:47.075Z,960.00
2017-11-12T11:18:47.068Z,988.00
2017-11-12T11:19:47.063Z,1028.00
2017-11-12T11:20:47.059Z,1096.00
2017-11-12T11:21:47.048Z,1176.00
2017-11-12T11:22:47.043Z,1244.00
2017-11-12T11:23:47.041Z,1292.00
2017-11-12T11:24:47.031Z,1328.00
2017-11-12T11:25:47.025Z,1348.00
2017-11-12T11:26:47.017Z,1368.00
2017-11-12T11:27:47.035Z,1368.00
2017-11-12T11:28:47.008Z,1344.00
2017-11-12T11:29:46.998Z,1316.00
2017-11-12T11:30:46.992Z,1292.00
2017-11-12T11:31:46.990Z,1276.00
2017-11-12T11:32:46.986Z,1264.00
2017-11-12T11:33:46.975Z,1252.00
2017-11-12T11:34:46.967Z,1248.00
2017-11-12T11:35:46.994Z,1280.00
2017-11-12T11:36:46.960Z,1372.00
2017-11-12T11:37:46.950Z,1508.00
2017-11-12T11:38:46.946Z,1656.00
2017-11-12T11:39:46.939Z,1744.00
2017-11-12T11:40:46.930Z,1712.00
2017-11-12T11:41:46.926Z,1612.00
2017-11-12T11:42:46.922Z,1544.00
2017-11-12T11:43:46.932Z,1548.00
2017-11-12T11:44:46.909Z,1588.00
2017-11-12T11:45:46.902Z,1612.00
2017-11-12T11:46:46.896Z,1572.00
2017-11-12T11:47:46.892Z,1484.00
2017-11-12T11:48:46.884Z,1404.00
2017-11-12T11:49:46.877Z,1360.00
2017-11-12T11:50:46.870Z,1352.00
2017-11-12T11:51:46.865Z,1356.00
2017-11-12T11:52:46.861Z,1348.00
2017-11-12T11:53:46.852Z,1304.00
2017-11-12T11:54:46.844Z,1248.00
2017-11-12T11:55:46.849Z,1208.00
2017-11-12T11:56:46.833Z,1220.00
2017-11-12T11:57:46.830Z,1268.00
2017-11-12T11:58:46.824Z,1324.00
2017-11-12T11:59:46.818Z,1332.00
2017-11-12T12:00:46.811Z,1308.00
2017-11-12T12:01:46.802Z,1384.00
2017-11-12T12:02:46.798Z,1508.00
2017-11-12T12:03:46.790Z,1636.00
2017-11-12T12:04:46.781Z,1740.00
2017-11-12T12:05:46.778Z,1768.00
2017-11-12T12:06:46.772Z,1716.00
2017-11-12T12:07:46.768Z,1624.00
2017-11-12T12:08:46.760Z,1476.00
2017-11-12T12:09:46.758Z,1304.00
2017-11-12T12:10:46.746Z,1136.00
2017-11-12T12:11:46.739Z,1008.00
2017-11-12T12:12:46.735Z,912.00
2017-11-12T12:13:46.729Z,856.00
2017-11-12T12:14:46.719Z,816.00
2017-11-12T12:15:46.719Z,784.00
2017-11-12T12:16:46.708Z,728.00
2017-11-12T12:17:46.706Z,672.00
2017-11-12T12:18:46.697Z,624.00
2017-11-12T12:19:46.691Z,624.00
2017-11-12T12:20:46.688Z,632.00
2017-11-12T12:21:46.679Z,648.00
2017-11-12T12:22:46.670Z,668.00
2017-11-12T12:23:46.670Z,660.00
2017-11-12T12:24:46.650Z,632.00
2017-11-12T12:25:46.650Z,608.00
2017-11-12T12:26:46.646Z,576.00
2017-11-12T12:27:46.642Z,564.00
2017-11-12T12:28:46.635Z,540.00
2017-11-12T12:29:46.629Z,544.00
2017-11-12T12:30:46.622Z,560.00
2017-11-12T12:31:46.616Z,652.00
2017-11-12T12:32:46.612Z,904.00
2017-11-12T12:33:46.605Z,1080.00
2017-11-12T12:34:46.596Z,1132.00
2017-11-12T12:35:46.589Z,1208.00
2017-11-12T12:36:46.586Z,1296.00
2017-11-12T12:37:46.577Z,1348.00
2017-11-12T12:38:46.572Z,1396.00
2017-11-12T12:39:46.564Z,1476.00
2017-11-12T12:40:46.556Z,1528.00
2017-11-12T12:41:46.552Z,1584.00
2017-11-12T12:42:46.545Z,1572.00
2017-11-12T12:43:46.541Z,1464.00
2017-11-12T12:44:46.533Z,1308.00
2017-11-12T12:45:46.527Z,1232.00
2017-11-12T12:46:46.524Z,1232.00
2017-11-12T12:47:46.515Z,1220.00
2017-11-12T12:48:46.522Z,1140.00